sensor_id;sensor_type;location;lat;lon;timestamp;pressure;altitude;pressure_sealevel;temperature;humidity
61292;BME280;47165;42.664;23.368;2023-08-01T00:00:02;94691.81;;;23.70;49.59
61292;BME280;47165;42.664;23.368;2023-08-01T00:02:28;94683.47;;;23.81;49.45
61292;BME280;47165;42.664;23.368;2023-08-01T00:04:54;94683.97;;;23.77;49.41
61292;BME280;47165;42.664;23.368;2023-08-01T00:07:20;94687.63;;;23.76;49.74
61292;BME280;47165;42.664;23.368;2023-08-01T00:09:45;94687.63;;;23.84;49.06
61292;BME280;47165;42.664;23.368;2023-08-01T00:12:11;94687.25;;;23.56;50.17
61292;BME280;47165;42.664;23.368;2023-08-01T00:14:36;94686.91;;;23.59;50.14
61292;BME280;47165;42.664;23.368;2023-08-01T00:17:02;94680.31;;;23.78;49.46
61292;BME280;47165;42.664;23.368;2023-08-01T00:19:28;94683.00;;;23.78;49.60
61292;BME280;47165;42.664;23.368;2023-08-01T00:21:54;94681.47;;;23.83;49.29
61292;BME280;47165;42.664;23.368;2023-08-01T00:24:19;94681.63;;;23.82;49.30
61292;BME280;47165;42.664;23.368;2023-08-01T00:26:45;94681.47;;;23.83;49.33
61292;BME280;47165;42.664;23.368;2023-08-01T00:29:10;94682.06;;;23.94;48.64
61292;BME280;47165;42.664;23.368;2023-08-01T00:31:36;94680.69;;;23.66;49.41
61292;BME280;47165;42.664;23.368;2023-08-01T00:34:01;94682.22;;;23.61;49.45
61292;BME280;47165;42.664;23.368;2023-08-01T00:36:27;94684.84;;;23.77;49.11
61292;BME280;47165;42.664;23.368;2023-08-01T00:38:52;94691.75;;;23.86;48.86
61292;BME280;47165;42.664;23.368;2023-08-01T00:41:18;94692.72;;;23.94;48.83
61292;BME280;47165;42.664;23.368;2023-08-01T00:43:43;94680.03;;;23.96;48.84
61292;BME280;47165;42.664;23.368;2023-08-01T00:46:10;94684.00;;;24.00;48.61
61292;BME280;47165;42.664;23.368;2023-08-01T00:48:35;94685.81;;;23.99;48.71
61292;BME280;47165;42.664;23.368;2023-08-01T00:51:04;94682.88;;;23.94;49.02
61292;BME280;47165;42.664;23.368;2023-08-01T00:53:31;94686.53;;;23.93;49.07
61292;BME280;47165;42.664;23.368;2023-08-01T00:55:57;94678.53;;;23.93;49.52
61292;BME280;47165;42.664;23.368;2023-08-01T00:58:23;94674.72;;;23.96;49.29
61292;BME280;47165;42.664;23.368;2023-08-01T01:00:49;94675.03;;;23.93;49.41
61292;BME280;47165;42.664;23.368;2023-08-01T01:03:15;94681.03;;;23.95;49.22
61292;BME280;47165;42.664;23.368;2023-08-01T01:08:29;94670.78;;;23.83;49.66
61292;BME280;47165;42.664;23.368;2023-08-01T01:10:54;94665.47;;;23.83;49.70
61292;BME280;47165;42.664;23.368;2023-08-01T01:13:20;94668.41;;;23.88;49.22
61292;BME280;47165;42.664;23.368;2023-08-01T01:15:45;94659.28;;;23.83;49.30
61292;BME280;47165;42.664;23.368;2023-08-01T01:18:11;94665.16;;;23.78;49.50
61292;BME280;47165;42.664;23.368;2023-08-01T01:20:38;94663.50;;;23.77;49.51
61292;BME280;47165;42.664;23.368;2023-08-01T01:23:05;94663.81;;;23.74;49.88
61292;BME280;47165;42.664;23.368;2023-08-01T01:25:31;94659.81;;;23.78;49.68
61292;BME280;47165;42.664;23.368;2023-08-01T01:27:59;94652.28;;;23.82;50.04
61292;BME280;47165;42.664;23.368;2023-08-01T01:30:26;94654.97;;;23.82;50.53
61292;BME280;47165;42.664;23.368;2023-08-01T01:32:59;94651.75;;;23.86;50.35
61292;BME280;47165;42.664;23.368;2023-08-01T01:35:24;94654.16;;;23.81;50.33
61292;BME280;47165;42.664;23.368;2023-08-01T01:37:50;94646.16;;;23.81;50.87
61292;BME280;47165;42.664;23.368;2023-08-01T01:40:17;94644.13;;;23.83;50.75
61292;BME280;47165;42.664;23.368;2023-08-01T01:42:42;94651.66;;;23.80;50.72
61292;BME280;47165;42.664;23.368;2023-08-01T01:45:08;94644.84;;;23.77;51.07
61292;BME280;47165;42.664;23.368;2023-08-01T01:47:34;94639.50;;;23.77;51.51
61292;BME280;47165;42.664;23.368;2023-08-01T01:49:59;94643.97;;;23.77;51.45
61292;BME280;47165;42.664;23.368;2023-08-01T01:52:26;94642.16;;;23.77;52.10
61292;BME280;47165;42.664;23.368;2023-08-01T01:54:51;94659.13;;;23.76;52.24
61292;BME280;47165;42.664;23.368;2023-08-01T01:57:17;94659.28;;;23.75;52.21
61292;BME280;47165;42.664;23.368;2023-08-01T01:59:42;94666.09;;;23.54;52.76
61292;BME280;47165;42.664;23.368;2023-08-01T02:02:08;94662.16;;;23.42;52.96
61292;BME280;47165;42.664;23.368;2023-08-01T02:04:33;94664.66;;;23.43;52.88
61292;BME280;47165;42.664;23.368;2023-08-01T02:06:58;94658.66;;;23.41;52.75
61292;BME280;47165;42.664;23.368;2023-08-01T02:09:24;94658.13;;;23.46;52.38
61292;BME280;47165;42.664;23.368;2023-08-01T02:11:49;94661.81;;;23.45;52.42
61292;BME280;47165;42.664;23.368;2023-08-01T02:14:15;94662.34;;;23.40;53.12
61292;BME280;47165;42.664;23.368;2023-08-01T02:16:41;94662.03;;;23.35;53.51
61292;BME280;47165;42.664;23.368;2023-08-01T02:19:07;94655.38;;;23.31;53.65
61292;BME280;47165;42.664;23.368;2023-08-01T02:21:33;94659.06;;;23.30;53.48
61292;BME280;47165;42.664;23.368;2023-08-01T02:23:58;94664.72;;;23.27;53.67
61292;BME280;47165;42.664;23.368;2023-08-01T02:26:24;94662.91;;;23.27;53.42
61292;BME280;47165;42.664;23.368;2023-08-01T02:28:50;94652.28;;;23.19;53.93
61292;BME280;47165;42.664;23.368;2023-08-01T02:31:16;94654.28;;;23.17;53.84
61292;BME280;47165;42.664;23.368;2023-08-01T02:33:41;94648.16;;;23.08;54.21
61292;BME280;47165;42.664;23.368;2023-08-01T02:36:07;94648.53;;;23.05;54.20
61292;BME280;47165;42.664;23.368;2023-08-01T02:38:33;94645.88;;;22.97;54.34
61292;BME280;47165;42.664;23.368;2023-08-01T02:40:58;94652.69;;;22.92;54.25
61292;BME280;47165;42.664;23.368;2023-08-01T02:43:25;94650.88;;;22.84;54.80
61292;BME280;47165;42.664;23.368;2023-08-01T02:45:50;94653.06;;;22.80;54.77
61292;BME280;47165;42.664;23.368;2023-08-01T02:48:16;94652.91;;;22.82;54.89
61292;BME280;47165;42.664;23.368;2023-08-01T02:50:41;94652.22;;;22.88;54.58
61292;BME280;47165;42.664;23.368;2023-08-01T02:53:07;94652.91;;;22.82;54.76
61292;BME280;47165;42.664;23.368;2023-08-01T02:55:33;94650.59;;;22.79;54.71
61292;BME280;47165;42.664;23.368;2023-08-01T02:57:58;94650.09;;;22.75;54.86
61292;BME280;47165;42.664;23.368;2023-08-01T03:00:24;94651.94;;;22.75;54.80
61292;BME280;47165;42.664;23.368;2023-08-01T03:02:50;94648.91;;;22.78;54.73
61292;BME280;47165;42.664;23.368;2023-08-01T03:05:16;94651.44;;;22.71;55.00
61292;BME280;47165;42.664;23.368;2023-08-01T03:07:42;94655.75;;;22.72;54.88
61292;BME280;47165;42.664;23.368;2023-08-01T03:10:08;94661.28;;;22.62;55.34
61292;BME280;47165;42.664;23.368;2023-08-01T03:12:34;94655.63;;;22.49;55.68
61292;BME280;47165;42.664;23.368;2023-08-01T03:14:59;94649.34;;;22.42;55.79
61292;BME280;47165;42.664;23.368;2023-08-01T03:17:40;94648.00;;;22.38;55.97
61292;BME280;47165;42.664;23.368;2023-08-01T03:20:12;94655.34;;;22.36;56.00
61292;BME280;47165;42.664;23.368;2023-08-01T03:22:40;94654.00;;;22.32;56.04
61292;BME280;47165;42.664;23.368;2023-08-01T03:25:07;94652.34;;;22.30;56.27
61292;BME280;47165;42.664;23.368;2023-08-01T03:27:33;94649.66;;;22.30;56.17
61292;BME280;47165;42.664;23.368;2023-08-01T03:29:58;94657.66;;;22.30;56.26
61292;BME280;47165;42.664;23.368;2023-08-01T03:32:24;94656.31;;;22.26;56.34
61292;BME280;47165;42.664;23.368;2023-08-01T03:34:49;94670.41;;;22.02;57.41
61292;BME280;47165;42.664;23.368;2023-08-01T03:37:16;94677.56;;;21.94;57.58
61292;BME280;47165;42.664;23.368;2023-08-01T03:39:41;94679.06;;;21.88;57.62
61292;BME280;47165;42.664;23.368;2023-08-01T03:42:07;94676.88;;;21.67;58.07
61292;BME280;47165;42.664;23.368;2023-08-01T03:44:33;94679.75;;;21.31;59.33
61292;BME280;47165;42.664;23.368;2023-08-01T03:46:59;94676.34;;;21.04;59.96
61292;BME280;47165;42.664;23.368;2023-08-01T03:49:24;94688.94;;;21.02;59.97
61292;BME280;47165;42.664;23.368;2023-08-01T03:51:50;94685.88;;;20.89;60.22
61292;BME280;47165;42.664;23.368;2023-08-01T03:54:15;94681.94;;;21.01;60.00
61292;BME280;47165;42.664;23.368;2023-08-01T03:56:41;94676.53;;;21.11;59.59
61292;BME280;47165;42.664;23.368;2023-08-01T03:59:13;94688.00;;;21.20;59.13
61292;BME280;47165;42.664;23.368;2023-08-01T04:01:39;94690.97;;;21.17;59.17
61292;BME280;47165;42.664;23.368;2023-08-01T04:04:05;94688.59;;;21.05;59.54
61292;BME280;47165;42.664;23.368;2023-08-01T04:06:30;94685.47;;;21.10;59.49
61292;BME280;47165;42.664;23.368;2023-08-01T04:08:56;94694.13;;;21.20;58.74
61292;BME280;47165;42.664;23.368;2023-08-01T04:11:22;94695.47;;;21.24;58.46
61292;BME280;47165;42.664;23.368;2023-08-01T04:13:48;94699.16;;;21.32;58.24
61292;BME280;47165;42.664;23.368;2023-08-01T04:16:13;94687.81;;;21.13;58.57
61292;BME280;47165;42.664;23.368;2023-08-01T04:18:39;94687.03;;;21.21;58.64
61292;BME280;47165;42.664;23.368;2023-08-01T04:21:05;94694.34;;;21.27;58.44
61292;BME280;47165;42.664;23.368;2023-08-01T04:23:31;94693.38;;;21.36;57.75
61292;BME280;47165;42.664;23.368;2023-08-01T04:25:57;94702.53;;;21.42;57.26
61292;BME280;47165;42.664;23.368;2023-08-01T04:28:24;94697.34;;;21.40;57.51
61292;BME280;47165;42.664;23.368;2023-08-01T04:30:50;94695.94;;;21.46;57.25
61292;BME280;47165;42.664;23.368;2023-08-01T04:33:15;94695.09;;;21.45;57.21
61292;BME280;47165;42.664;23.368;2023-08-01T04:35:41;94698.44;;;21.47;56.98
61292;BME280;47165;42.664;23.368;2023-08-01T04:38:07;94689.44;;;21.48;57.11
61292;BME280;47165;42.664;23.368;2023-08-01T04:40:34;94705.09;;;21.52;56.77
61292;BME280;47165;42.664;23.368;2023-08-01T04:43:02;94696.09;;;21.53;56.67
61292;BME280;47165;42.664;23.368;2023-08-01T04:45:28;94700.75;;;21.50;57.33
61292;BME280;47165;42.664;23.368;2023-08-01T04:47:53;94699.75;;;21.52;56.68
61292;BME280;47165;42.664;23.368;2023-08-01T04:50:19;94694.81;;;21.65;56.44
61292;BME280;47165;42.664;23.368;2023-08-01T04:52:44;94686.53;;;21.68;56.04
61292;BME280;47165;42.664;23.368;2023-08-01T04:55:10;94686.34;;;21.69;56.47
61292;BME280;47165;42.664;23.368;2023-08-01T04:57:36;94684.03;;;21.75;56.31
61292;BME280;47165;42.664;23.368;2023-08-01T05:00:03;94689.00;;;21.78;56.66
61292;BME280;47165;42.664;23.368;2023-08-01T05:02:29;94682.19;;;21.75;56.11
61292;BME280;47165;42.664;23.368;2023-08-01T05:04:54;94693.66;;;21.76;56.24
61292;BME280;47165;42.664;23.368;2023-08-01T05:07:20;94684.19;;;21.81;56.14
61292;BME280;47165;42.664;23.368;2023-08-01T05:09:45;94687.38;;;21.85;55.95
61292;BME280;47165;42.664;23.368;2023-08-01T05:12:11;94686.19;;;21.87;55.95
61292;BME280;47165;42.664;23.368;2023-08-01T05:14:36;94685.53;;;21.85;55.36
61292;BME280;47165;42.664;23.368;2023-08-01T05:17:02;94693.00;;;21.90;55.28
61292;BME280;47165;42.664;23.368;2023-08-01T05:19:28;94695.50;;;21.92;55.16
61292;BME280;47165;42.664;23.368;2023-08-01T05:21:53;94691.53;;;21.96;55.23
61292;BME280;47165;42.664;23.368;2023-08-01T05:24:20;94695.34;;;22.01;55.16
61292;BME280;47165;42.664;23.368;2023-08-01T05:26:46;94694.34;;;22.02;55.03
61292;BME280;47165;42.664;23.368;2023-08-01T05:29:11;94690.88;;;22.10;54.53
61292;BME280;47165;42.664;23.368;2023-08-01T05:31:36;94680.22;;;22.18;54.12
61292;BME280;47165;42.664;23.368;2023-08-01T05:34:02;94685.94;;;22.23;54.00
61292;BME280;47165;42.664;23.368;2023-08-01T05:36:27;94685.75;;;22.25;54.20
61292;BME280;47165;42.664;23.368;2023-08-01T05:38:53;94686.91;;;22.30;53.89
61292;BME280;47165;42.664;23.368;2023-08-01T05:41:18;94691.91;;;22.34;53.75
61292;BME280;47165;42.664;23.368;2023-08-01T05:43:46;94692.91;;;22.33;53.89
61292;BME280;47165;42.664;23.368;2023-08-01T05:46:12;94694.19;;;22.20;53.09
61292;BME280;47165;42.664;23.368;2023-08-01T05:48:37;94691.38;;;22.22;53.78
61292;BME280;47165;42.664;23.368;2023-08-01T05:51:03;94693.03;;;22.23;53.38
61292;BME280;47165;42.664;23.368;2023-08-01T05:53:28;94682.91;;;22.26;52.81
61292;BME280;47165;42.664;23.368;2023-08-01T05:55:54;94674.59;;;22.21;53.05
61292;BME280;47165;42.664;23.368;2023-08-01T05:58:20;94676.28;;;22.30;53.37
61292;BME280;47165;42.664;23.368;2023-08-01T06:00:45;94683.94;;;22.34;52.53
61292;BME280;47165;42.664;23.368;2023-08-01T06:03:11;94678.41;;;22.43;52.05
61292;BME280;47165;42.664;23.368;2023-08-01T06:05:36;94682.25;;;22.49;51.58
61292;BME280;47165;42.664;23.368;2023-08-01T06:08:03;94677.91;;;22.56;51.32
61292;BME280;47165;42.664;23.368;2023-08-01T06:10:28;94674.91;;;22.51;50.97
61292;BME280;47165;42.664;23.368;2023-08-01T06:12:54;94676.75;;;22.59;51.41
61292;BME280;47165;42.664;23.368;2023-08-01T06:15:19;94678.22;;;22.61;50.71
61292;BME280;47165;42.664;23.368;2023-08-01T06:17:46;94683.53;;;22.69;50.50
61292;BME280;47165;42.664;23.368;2023-08-01T06:20:12;94681.22;;;22.75;50.21
61292;BME280;47165;42.664;23.368;2023-08-01T06:22:38;94675.69;;;22.76;49.36
61292;BME280;47165;42.664;23.368;2023-08-01T06:25:04;94678.16;;;22.86;49.62
61292;BME280;47165;42.664;23.368;2023-08-01T06:27:33;94672.81;;;22.94;49.57
61292;BME280;47165;42.664;23.368;2023-08-01T06:29:59;94672.00;;;23.02;49.88
61292;BME280;47165;42.664;23.368;2023-08-01T06:32:25;94672.78;;;23.10;50.26
61292;BME280;47165;42.664;23.368;2023-08-01T06:34:51;94664.47;;;23.14;50.49
61292;BME280;47165;42.664;23.368;2023-08-01T06:37:17;94669.28;;;23.18;50.34
61292;BME280;47165;42.664;23.368;2023-08-01T06:39:42;94667.94;;;23.22;50.75
61292;BME280;47165;42.664;23.368;2023-08-01T06:42:08;94667.09;;;22.17;53.81
61292;BME280;47165;42.664;23.368;2023-08-01T06:44:34;94659.94;;;22.58;53.01
61292;BME280;47165;42.664;23.368;2023-08-01T06:46:59;94658.41;;;23.28;50.71
61292;BME280;47165;42.664;23.368;2023-08-01T06:49:25;94657.47;;;23.75;49.36
61292;BME280;47165;42.664;23.368;2023-08-01T06:51:50;94659.47;;;23.81;48.84
61292;BME280;47165;42.664;23.368;2023-08-01T06:54:16;94660.25;;;23.59;48.94
61292;BME280;47165;42.664;23.368;2023-08-01T06:56:41;94660.66;;;23.70;49.68
61292;BME280;47165;42.664;23.368;2023-08-01T06:59:15;94657.50;;;23.98;48.22
61292;BME280;47165;42.664;23.368;2023-08-01T07:01:41;94664.72;;;24.13;47.68
61292;BME280;47165;42.664;23.368;2023-08-01T07:04:12;94660.66;;;24.40;47.21
61292;BME280;47165;42.664;23.368;2023-08-01T07:06:37;94654.50;;;24.39;46.37
61292;BME280;47165;42.664;23.368;2023-08-01T07:09:03;94658.75;;;24.48;46.83
61292;BME280;47165;42.664;23.368;2023-08-01T07:11:29;94655.41;;;24.46;46.85
61292;BME280;47165;42.664;23.368;2023-08-01T07:13:54;94650.38;;;24.37;46.62
61292;BME280;47165;42.664;23.368;2023-08-01T07:16:20;94638.72;;;24.53;46.41
61292;BME280;47165;42.664;23.368;2023-08-01T07:18:45;94640.13;;;24.40;46.41
61292;BME280;47165;42.664;23.368;2023-08-01T07:21:11;94645.13;;;24.43;45.45
61292;BME280;47165;42.664;23.368;2023-08-01T07:23:36;94639.91;;;24.50;45.67
61292;BME280;47165;42.664;23.368;2023-08-01T07:26:02;94646.47;;;24.62;45.98
61292;BME280;47165;42.664;23.368;2023-08-01T07:28:28;94650.44;;;24.66;45.56
61292;BME280;47165;42.664;23.368;2023-08-01T07:31:01;94640.03;;;25.01;44.78
61292;BME280;47165;42.664;23.368;2023-08-01T07:33:27;94638.00;;;25.03;44.90
61292;BME280;47165;42.664;23.368;2023-08-01T07:35:53;94635.63;;;25.08;43.88
61292;BME280;47165;42.664;23.368;2023-08-01T07:38:18;94633.19;;;25.28;43.86
61292;BME280;47165;42.664;23.368;2023-08-01T07:40:44;94634.34;;;25.56;43.88
61292;BME280;47165;42.664;23.368;2023-08-01T07:43:09;94631.28;;;25.59;42.40
61292;BME280;47165;42.664;23.368;2023-08-01T07:45:36;94632.44;;;25.35;42.70
61292;BME280;47165;42.664;23.368;2023-08-01T07:48:01;94633.66;;;25.32;43.43
61292;BME280;47165;42.664;23.368;2023-08-01T07:50:27;94629.94;;;25.48;42.51
61292;BME280;47165;42.664;23.368;2023-08-01T07:52:53;94639.06;;;25.54;42.89
61292;BME280;47165;42.664;23.368;2023-08-01T07:55:18;94638.19;;;25.68;42.86
61292;BME280;47165;42.664;23.368;2023-08-01T07:57:46;94636.47;;;25.82;42.26
61292;BME280;47165;42.664;23.368;2023-08-01T08:00:11;94638.84;;;25.92;42.36
61292;BME280;47165;42.664;23.368;2023-08-01T08:02:37;94626.63;;;26.04;41.76
61292;BME280;47165;42.664;23.368;2023-08-01T08:05:03;94629.69;;;26.01;41.73
61292;BME280;47165;42.664;23.368;2023-08-01T08:07:29;94636.47;;;25.82;41.95
61292;BME280;47165;42.664;23.368;2023-08-01T08:09:54;94622.44;;;25.58;41.87
61292;BME280;47165;42.664;23.368;2023-08-01T08:12:21;94624.22;;;25.51;41.63
61292;BME280;47165;42.664;23.368;2023-08-01T08:14:47;94624.31;;;26.22;40.79
61292;BME280;47165;42.664;23.368;2023-08-01T08:17:13;94621.22;;;26.47;40.08
61292;BME280;47165;42.664;23.368;2023-08-01T08:19:38;94619.31;;;26.62;39.54
61292;BME280;47165;42.664;23.368;2023-08-01T08:22:04;94613.03;;;26.55;39.41
61292;BME280;47165;42.664;23.368;2023-08-01T08:24:30;94609.72;;;26.53;39.33
61292;BME280;47165;42.664;23.368;2023-08-01T08:26:56;94604.66;;;26.58;39.51
61292;BME280;47165;42.664;23.368;2023-08-01T08:29:22;94603.88;;;26.64;39.91
61292;BME280;47165;42.664;23.368;2023-08-01T08:31:48;94611.59;;;26.81;39.73
61292;BME280;47165;42.664;23.368;2023-08-01T08:34:14;94603.72;;;26.73;38.95
61292;BME280;47165;42.664;23.368;2023-08-01T08:36:39;94608.47;;;26.77;38.91
61292;BME280;47165;42.664;23.368;2023-08-01T08:39:05;94608.75;;;26.89;39.35
61292;BME280;47165;42.664;23.368;2023-08-01T08:41:58;94587.78;;;26.99;39.75
61292;BME280;47165;42.664;23.368;2023-08-01T08:44:24;94592.72;;;27.02;39.04
61292;BME280;47165;42.664;23.368;2023-08-01T08:46:53;94589.88;;;27.10;38.96
61292;BME280;47165;42.664;23.368;2023-08-01T08:49:24;94587.66;;;27.21;38.70
61292;BME280;47165;42.664;23.368;2023-08-01T08:51:52;94583.28;;;27.13;38.73
61292;BME280;47165;42.664;23.368;2023-08-01T08:54:19;94578.53;;;27.08;38.27
61292;BME280;47165;42.664;23.368;2023-08-01T08:56:45;94579.75;;;26.99;38.00
61292;BME280;47165;42.664;23.368;2023-08-01T08:59:12;94580.38;;;27.08;38.03
61292;BME280;47165;42.664;23.368;2023-08-01T09:01:38;94578.66;;;27.35;37.68
61292;BME280;47165;42.664;23.368;2023-08-01T09:04:05;94573.91;;;27.31;37.32
61292;BME280;47165;42.664;23.368;2023-08-01T09:06:45;94564.88;;;27.52;37.31
61292;BME280;47165;42.664;23.368;2023-08-01T09:09:12;94572.13;;;27.58;36.25
61292;BME280;47165;42.664;23.368;2023-08-01T09:14:10;94563.06;;;27.72;36.13
61292;BME280;47165;42.664;23.368;2023-08-01T09:16:35;94559.56;;;27.78;36.09
61292;BME280;47165;42.664;23.368;2023-08-01T09:19:01;94550.97;;;27.89;36.41
61292;BME280;47165;42.664;23.368;2023-08-01T09:21:31;94551.56;;;27.98;36.03
61292;BME280;47165;42.664;23.368;2023-08-01T09:24:08;94550.53;;;28.06;35.79
61292;BME280;47165;42.664;23.368;2023-08-01T09:26:34;94546.22;;;28.18;36.61
61292;BME280;47165;42.664;23.368;2023-08-01T09:28:59;94556.91;;;28.32;37.20
61292;BME280;47165;42.664;23.368;2023-08-01T09:31:32;94555.25;;;28.44;35.43
61292;BME280;47165;42.664;23.368;2023-08-01T09:33:59;94551.13;;;28.68;35.90
61292;BME280;47165;42.664;23.368;2023-08-01T09:36:24;94552.97;;;28.74;35.95
61292;BME280;47165;42.664;23.368;2023-08-01T09:38:51;94548.00;;;28.78;34.76
61292;BME280;47165;42.664;23.368;2023-08-01T09:41:20;94543.22;;;28.80;35.21
61292;BME280;47165;42.664;23.368;2023-08-01T09:43:49;94543.63;;;28.90;35.75
61292;BME280;47165;42.664;23.368;2023-08-01T09:46:15;94541.72;;;28.97;35.34
61292;BME280;47165;42.664;23.368;2023-08-01T09:48:41;94535.44;;;29.10;35.13
61292;BME280;47165;42.664;23.368;2023-08-01T09:51:12;94533.41;;;29.19;35.62
61292;BME280;47165;42.664;23.368;2023-08-01T09:53:53;94530.81;;;29.31;36.71
61292;BME280;47165;42.664;23.368;2023-08-01T09:56:26;94519.69;;;29.27;34.45
61292;BME280;47165;42.664;23.368;2023-08-01T09:58:54;94525.84;;;29.34;34.26
61292;BME280;47165;42.664;23.368;2023-08-01T10:01:21;94527.88;;;29.39;34.40
61292;BME280;47165;42.664;23.368;2023-08-01T10:03:49;94510.72;;;29.40;34.10
61292;BME280;47165;42.664;23.368;2023-08-01T10:06:22;94506.97;;;29.47;34.45
61292;BME280;47165;42.664;23.368;2023-08-01T10:08:50;94503.34;;;29.60;34.73
61292;BME280;47165;42.664;23.368;2023-08-01T10:11:18;94492.97;;;29.64;33.77
61292;BME280;47165;42.664;23.368;2023-08-01T10:13:44;94494.19;;;29.68;34.08
61292;BME280;47165;42.664;23.368;2023-08-01T10:16:11;94488.78;;;29.75;33.69
61292;BME280;47165;42.664;23.368;2023-08-01T10:18:39;94492.81;;;29.91;34.40
61292;BME280;47165;42.664;23.368;2023-08-01T10:21:15;94483.41;;;30.00;34.56
61292;BME280;47165;42.664;23.368;2023-08-01T10:23:42;94489.28;;;30.15;33.91
61292;BME280;47165;42.664;23.368;2023-08-01T10:26:09;94484.22;;;29.75;33.06
61292;BME280;47165;42.664;23.368;2023-08-01T10:28:41;94490.25;;;29.96;32.81
61292;BME280;47165;42.664;23.368;2023-08-01T10:33:37;94472.72;;;30.12;32.94
61292;BME280;47165;42.664;23.368;2023-08-01T10:36:23;94471.97;;;29.79;33.04
61292;BME280;47165;42.664;23.368;2023-08-01T10:38:51;94468.34;;;29.92;32.34
61292;BME280;47165;42.664;23.368;2023-08-01T10:41:34;94459.41;;;29.66;32.77
61292;BME280;47165;42.664;23.368;2023-08-01T10:44:09;94458.13;;;30.01;32.67
61292;BME280;47165;42.664;23.368;2023-08-01T10:46:51;94463.22;;;30.34;33.49
61292;BME280;47165;42.664;23.368;2023-08-01T10:49:17;94459.03;;;30.57;33.07
61292;BME280;47165;42.664;23.368;2023-08-01T10:51:44;94447.88;;;30.90;33.37
61292;BME280;47165;42.664;23.368;2023-08-01T10:54:23;94443.78;;;31.18;32.00
61292;BME280;47165;42.664;23.368;2023-08-01T10:56:51;94443.13;;;31.34;31.40
61292;BME280;47165;42.664;23.368;2023-08-01T10:59:18;94439.44;;;31.47;31.23
61292;BME280;47165;42.664;23.368;2023-08-01T11:01:48;94445.72;;;31.71;31.46
61292;BME280;47165;42.664;23.368;2023-08-01T11:04:21;94434.56;;;31.91;29.38
61292;BME280;47165;42.664;23.368;2023-08-01T11:06:51;94433.78;;;32.02;29.45
61292;BME280;47165;42.664;23.368;2023-08-01T11:09:27;94431.91;;;32.26;29.80
61292;BME280;47165;42.664;23.368;2023-08-01T11:11:56;94438.81;;;32.46;29.84
61292;BME280;47165;42.664;23.368;2023-08-01T11:14:24;94428.25;;;32.56;28.35
61292;BME280;47165;42.664;23.368;2023-08-01T11:16:50;94423.75;;;32.62;27.28
61292;BME280;47165;42.664;23.368;2023-08-01T11:19:23;94424.31;;;32.76;28.37
61292;BME280;47165;42.664;23.368;2023-08-01T11:21:50;94415.13;;;32.77;28.61
61292;BME280;47165;42.664;23.368;2023-08-01T11:24:19;94413.59;;;32.81;27.92
61292;BME280;47165;42.664;23.368;2023-08-01T11:26:46;94410.63;;;32.94;27.73
61292;BME280;47165;42.664;23.368;2023-08-01T11:29:13;94405.22;;;33.23;27.73
61292;BME280;47165;42.664;23.368;2023-08-01T11:31:40;94401.72;;;33.39;27.87
61292;BME280;47165;42.664;23.368;2023-08-01T11:34:08;94391.66;;;33.52;27.59
61292;BME280;47165;42.664;23.368;2023-08-01T11:36:36;94394.94;;;33.08;26.69
61292;BME280;47165;42.664;23.368;2023-08-01T11:39:03;94399.50;;;33.36;27.01
61292;BME280;47165;42.664;23.368;2023-08-01T11:41:29;94398.84;;;33.29;25.88
61292;BME280;47165;42.664;23.368;2023-08-01T11:43:55;94397.16;;;33.74;25.86
61292;BME280;47165;42.664;23.368;2023-08-01T11:46:22;94390.50;;;34.15;24.93
61292;BME280;47165;42.664;23.368;2023-08-01T11:48:48;94385.38;;;34.36;23.90
61292;BME280;47165;42.664;23.368;2023-08-01T11:51:16;94385.34;;;34.58;24.29
61292;BME280;47165;42.664;23.368;2023-08-01T11:53:42;94383.88;;;34.89;23.49
61292;BME280;47165;42.664;23.368;2023-08-01T11:56:08;94373.19;;;34.82;22.93
61292;BME280;47165;42.664;23.368;2023-08-01T11:58:40;94375.41;;;35.08;23.29
61292;BME280;47165;42.664;23.368;2023-08-01T12:01:09;94360.31;;;35.49;23.23
61292;BME280;47165;42.664;23.368;2023-08-01T12:03:50;94353.06;;;35.92;22.41
61292;BME280;47165;42.664;23.368;2023-08-01T12:06:18;94357.91;;;36.22;22.55
61292;BME280;47165;42.664;23.368;2023-08-01T12:08:46;94351.63;;;36.22;21.70
61292;BME280;47165;42.664;23.368;2023-08-01T12:11:21;94347.16;;;36.53;22.38
61292;BME280;47165;42.664;23.368;2023-08-01T12:13:47;94346.25;;;37.05;21.38
61292;BME280;47165;42.664;23.368;2023-08-01T12:16:14;94337.06;;;37.53;20.99
61292;BME280;47165;42.664;23.368;2023-08-01T12:18:46;94337.59;;;38.01;20.61
61292;BME280;47165;42.664;23.368;2023-08-01T12:21:13;94335.50;;;38.68;20.64
61292;BME280;47165;42.664;23.368;2023-08-01T12:23:39;94335.88;;;39.51;19.49
61292;BME280;47165;42.664;23.368;2023-08-01T12:26:06;94331.88;;;37.31;21.49
61292;BME280;47165;42.664;23.368;2023-08-01T12:28:32;94322.88;;;37.20;22.12
61292;BME280;47165;42.664;23.368;2023-08-01T12:30:58;94330.56;;;37.74;20.88
61292;BME280;47165;42.664;23.368;2023-08-01T12:33:24;94317.97;;;39.29;19.13
61292;BME280;47165;42.664;23.368;2023-08-01T12:35:50;94333.16;;;40.38;18.44
61292;BME280;47165;42.664;23.368;2023-08-01T12:38:15;94324.44;;;41.22;17.95
61292;BME280;47165;42.664;23.368;2023-08-01T12:40:42;94316.88;;;42.46;16.76
61292;BME280;47165;42.664;23.368;2023-08-01T12:43:07;94323.34;;;43.64;15.82
61292;BME280;47165;42.664;23.368;2023-08-01T12:45:33;94311.34;;;43.60;15.50
61292;BME280;47165;42.664;23.368;2023-08-01T12:47:58;94318.09;;;44.79;15.07
61292;BME280;47165;42.664;23.368;2023-08-01T12:50:24;94310.28;;;45.65;13.72
61292;BME280;47165;42.664;23.368;2023-08-01T12:52:49;94312.97;;;46.08;13.45
61292;BME280;47165;42.664;23.368;2023-08-01T12:55:15;94304.59;;;46.73;13.10